createdAt,value
2022-11-04T00:00:33.284Z,3.20
2022-11-04T00:03:00.054Z,2.67
2022-11-04T00:05:26.777Z,2.40
2022-11-04T00:08:12.027Z,2.57
2022-11-04T00:10:57.537Z,1.97
2022-11-04T00:13:25.388Z,2.93
2022-11-04T00:16:10.742Z,1.83
2022-11-04T00:18:37.453Z,2.37
2022-11-04T00:21:22.699Z,2.27
2022-11-04T00:24:08.064Z,2.40
2022-11-04T00:26:53.478Z,2.10
2022-11-04T00:29:20.208Z,2.40
2022-11-04T00:32:05.359Z,4.20
2022-11-04T00:34:32.041Z,3.27
2022-11-04T00:37:00.088Z,5.37
2022-11-04T00:39:26.802Z,3.23
2022-11-04T00:41:53.490Z,2.30
2022-11-04T00:44:20.238Z,2.93
2022-11-04T00:46:46.925Z,3.20
2022-11-04T00:49:13.616Z,2.90
2022-11-04T00:51:40.487Z,2.63
2022-11-04T00:54:07.353Z,2.90
2022-11-04T00:56:37.438Z,2.47
2022-11-04T00:59:04.468Z,2.40
2022-11-04T01:01:31.301Z,3.67
2022-11-04T01:03:58.686Z,3.10
2022-11-04T01:06:26.850Z,4.10
2022-11-04T01:08:58.180Z,2.30
2022-11-04T01:11:25.306Z,2.30
2022-11-04T01:13:52.443Z,2.13
2022-11-04T01:16:19.642Z,2.63
2022-11-04T01:18:47.405Z,2.00
2022-11-04T01:21:15.903Z,3.70
2022-11-04T01:23:44.045Z,1.87
2022-11-04T01:26:20.527Z,3.70
2022-11-04T01:28:47.498Z,2.23
2022-11-04T01:31:16.961Z,2.07
2022-11-04T01:33:43.995Z,2.10
2022-11-04T01:36:11.943Z,2.90
2022-11-04T01:38:39.086Z,3.67
2022-11-04T01:41:06.996Z,2.43
2022-11-04T01:44:04.310Z,1.80
2022-11-04T01:46:52.761Z,2.00
2022-11-04T01:49:37.885Z,2.60
2022-11-04T01:52:12.511Z,3.27
2022-11-04T01:54:41.711Z,2.37
2022-11-04T01:57:15.195Z,3.70
2022-11-04T01:59:42.770Z,2.40
2022-11-04T02:02:09.718Z,2.23
2022-11-04T02:04:38.259Z,2.97
2022-11-04T02:07:07.924Z,2.53
2022-11-04T02:09:37.141Z,2.13
2022-11-04T02:12:42.866Z,2.70
2022-11-04T02:15:09.834Z,2.83
2022-11-04T02:17:55.432Z,2.00
2022-11-04T02:20:59.242Z,2.17
2022-11-04T02:23:38.012Z,2.33
2022-11-04T02:26:22.646Z,2.83
2022-11-04T02:29:15.889Z,2.37
2022-11-04T02:31:48.488Z,3.10
2022-11-04T02:34:17.959Z,4.20
2022-11-04T02:36:44.661Z,3.60
2022-11-04T02:39:50.104Z,2.10
2022-11-04T02:42:36.143Z,1.77
2022-11-04T02:45:26.471Z,2.23
2022-11-04T02:48:08.834Z,1.83
2022-11-04T02:50:41.944Z,1.70
2022-11-04T02:53:19.210Z,1.73
2022-11-04T02:55:49.971Z,3.20
2022-11-04T02:58:25.521Z,5.50
2022-11-04T03:00:53.966Z,2.83
2022-11-04T03:03:28.846Z,1.50
2022-11-04T03:05:56.943Z,1.67
2022-11-04T03:08:35.755Z,2.40
2022-11-04T03:11:09.375Z,1.43
2022-11-04T03:13:44.859Z,6.60
2022-11-04T03:16:16.755Z,1.63
2022-11-04T03:18:55.093Z,3.73
2022-11-04T03:21:24.235Z,3.30
2022-11-04T03:23:51.013Z,1.13
2022-11-04T03:26:33.581Z,2.27
2022-11-04T03:29:25.018Z,1.70
2022-11-04T03:32:00.429Z,1.10
2022-11-04T03:34:27.582Z,1.53
2022-11-04T03:36:54.315Z,2.10
2022-11-04T03:39:21.124Z,1.90
2022-11-04T03:41:59.349Z,1.50
2022-11-04T03:44:27.119Z,1.27
2022-11-04T03:46:54.037Z,2.20
2022-11-04T03:49:22.587Z,1.40
2022-11-04T03:51:50.914Z,1.90
2022-11-04T03:54:18.740Z,2.60
2022-11-04T03:56:51.150Z,1.47
2022-11-04T03:59:36.392Z,1.90
2022-11-04T04:02:18.928Z,1.60
2022-11-04T04:05:00.418Z,1.43
2022-11-04T04:07:58.206Z,1.50
2022-11-04T04:11:17.595Z,2.97
2022-11-04T04:14:35.409Z,1.83
2022-11-04T04:17:05.318Z,1.77
2022-11-04T04:19:33.446Z,1.73
2022-11-04T04:22:07.038Z,5.63
2022-11-04T04:24:57.517Z,2.30
2022-11-04T04:27:33.507Z,2.20
2022-11-04T04:30:06.634Z,1.60
2022-11-04T04:32:41.745Z,1.30
2022-11-04T04:35:28.501Z,2.90
2022-11-04T04:38:18.915Z,1.73
2022-11-04T04:41:12.717Z,2.60
2022-11-04T04:44:01.062Z,2.17
2022-11-04T04:46:32.267Z,3.70
2022-11-04T04:49:09.437Z,1.73
2022-11-04T04:51:40.776Z,2.30
2022-11-04T04:54:07.833Z,2.37
2022-11-04T04:56:34.497Z,1.40
2022-11-04T04:59:01.246Z,2.80
2022-11-04T05:01:28.245Z,4.67
2022-11-04T05:03:55.248Z,2.00
2022-11-04T05:06:21.988Z,4.87
2022-11-04T05:08:48.701Z,1.90
2022-11-04T05:11:15.482Z,2.30
2022-11-04T05:13:42.205Z,6.23
2022-11-04T05:16:12.001Z,2.00
2022-11-04T05:18:38.902Z,2.90
2022-11-04T05:21:06.752Z,4.00
2022-11-04T05:23:34.726Z,2.47
2022-11-04T05:26:01.489Z,6.10
2022-11-04T05:28:28.214Z,1.20
2022-11-04T05:30:55.076Z,1.37
2022-11-04T05:33:21.848Z,2.40
2022-11-04T05:35:48.564Z,2.23
2022-11-04T05:38:15.326Z,1.53
2022-11-04T05:40:42.005Z,3.53
2022-11-04T05:43:09.316Z,7.17
2022-11-04T05:45:36.543Z,6.53
2022-11-04T05:48:05.647Z,5.93
2022-11-04T05:50:33.413Z,1.67
2022-11-04T05:53:01.000Z,1.50
2022-11-04T05:55:28.287Z,2.20
2022-11-04T05:57:55.260Z,1.93
2022-11-04T06:00:22.085Z,4.53
2022-11-04T06:02:49.084Z,2.17
2022-11-04T06:05:15.965Z,1.60
2022-11-04T06:07:42.702Z,1.67
2022-11-04T06:10:09.959Z,3.00
2022-11-04T06:12:36.761Z,4.33
2022-11-04T06:15:04.079Z,4.33
2022-11-04T06:17:30.854Z,3.00
2022-11-04T06:19:57.531Z,6.73
2022-11-04T06:22:24.320Z,4.70
2022-11-04T06:24:51.369Z,11.67
2022-11-04T06:27:18.381Z,26.33
2022-11-04T06:29:45.170Z,13.17
2022-11-04T06:32:14.490Z,4.27
2022-11-04T06:34:41.415Z,2.47
2022-11-04T06:37:09.300Z,2.10
2022-11-04T06:39:36.950Z,4.57
2022-11-04T06:42:04.925Z,3.77
2022-11-04T06:44:33.742Z,1.73
2022-11-04T06:47:00.510Z,9.80
2022-11-04T06:49:27.321Z,3.73
2022-11-04T06:51:54.188Z,4.10
2022-11-04T06:54:20.916Z,3.83
2022-11-04T06:56:47.692Z,5.23
2022-11-04T06:59:17.269Z,3.60
2022-11-04T07:01:44.983Z,1.77
2022-11-04T07:04:11.944Z,2.17
2022-11-04T07:06:43.931Z,3.47
2022-11-04T07:09:13.326Z,1.50
2022-11-04T07:11:41.062Z,1.80
2022-11-04T07:14:09.043Z,2.73
2022-11-04T07:16:36.190Z,3.40
2022-11-04T07:19:03.703Z,4.97
2022-11-04T07:21:30.653Z,3.93
2022-11-04T07:23:57.801Z,7.80
2022-11-04T07:26:24.586Z,5.67
2022-11-04T07:28:51.376Z,5.40
2022-11-04T07:31:18.545Z,4.50
2022-11-04T07:33:49.998Z,13.03
2022-11-04T07:36:17.574Z,12.10
2022-11-04T07:38:44.749Z,10.63
2022-11-04T07:41:12.268Z,5.90
2022-11-04T07:43:39.279Z,6.97
2022-11-04T07:46:09.661Z,6.83
2022-11-04T07:48:37.015Z,11.30
2022-11-04T07:51:05.869Z,10.17
2022-11-04T07:53:32.887Z,16.20
2022-11-04T07:56:02.967Z,13.93
2022-11-04T07:58:29.715Z,7.80
2022-11-04T08:01:11.060Z,9.47
2022-11-04T08:03:38.192Z,16.60
2022-11-04T08:06:07.495Z,19.33
2022-11-04T08:08:35.219Z,19.50
2022-11-04T08:11:14.230Z,16.73
2022-11-04T08:13:44.218Z,17.33
2022-11-04T08:16:14.008Z,12.83
2022-11-04T08:18:42.003Z,12.87
2022-11-04T08:21:10.149Z,19.33
2022-11-04T08:23:37.603Z,32.87
2022-11-04T08:26:09.868Z,27.70
2022-11-04T08:28:36.661Z,23.60
2022-11-04T08:31:23.844Z,17.40
2022-11-04T08:33:50.947Z,14.67
2022-11-04T08:36:22.422Z,9.67
2022-11-04T08:38:49.510Z,13.77
2022-11-04T08:41:19.697Z,15.70
2022-11-04T08:43:47.488Z,14.73
2022-11-04T08:46:15.508Z,13.83
2022-11-04T08:48:44.562Z,10.90
2022-11-04T08:51:15.245Z,9.33
2022-11-04T08:53:42.210Z,7.73
2022-11-04T08:56:22.054Z,3.53
2022-11-04T08:58:49.415Z,2.87
2022-11-04T09:01:17.539Z,4.50
2022-11-04T09:03:44.475Z,6.57
2022-11-04T09:06:15.581Z,2.23
2022-11-04T09:08:43.373Z,3.93
2022-11-04T09:11:13.217Z,3.50
2022-11-04T09:13:40.218Z,3.20
2022-11-04T09:16:07.993Z,4.30
2022-11-04T09:18:34.757Z,5.33
2022-11-04T09:21:05.929Z,2.13
2022-11-04T09:23:33.090Z,2.83
2022-11-04T09:26:05.821Z,1.83
2022-11-04T09:28:32.598Z,1.60
2022-11-04T09:30:59.318Z,5.47
2022-11-04T09:33:26.105Z,3.10
2022-11-04T09:35:57.753Z,3.50
2022-11-04T09:38:25.407Z,6.70
2022-11-04T09:40:54.010Z,4.10
2022-11-04T09:43:53.299Z,8.50
2022-11-04T09:46:21.127Z,4.60
2022-11-04T09:48:54.387Z,5.37
2022-11-04T09:51:47.932Z,5.17
2022-11-04T09:54:28.642Z,4.57
2022-11-04T09:56:59.293Z,8.70
2022-11-04T09:59:44.520Z,3.87
2022-11-04T10:02:11.854Z,4.40
2022-11-04T10:05:05.225Z,6.40
2022-11-04T10:08:02.366Z,4.00
2022-11-04T10:10:38.113Z,7.37
2022-11-04T10:13:14.911Z,4.60
2022-11-04T10:16:18.906Z,3.03
2022-11-04T10:18:51.165Z,2.70
2022-11-04T10:21:17.892Z,2.87
2022-11-04T10:23:56.455Z,4.47
2022-11-04T10:27:00.686Z,6.73
2022-11-04T10:29:30.975Z,2.43
2022-11-04T10:32:02.258Z,3.00
2022-11-04T10:34:36.575Z,4.50
2022-11-04T10:37:04.430Z,2.50
2022-11-04T10:39:37.210Z,2.60
2022-11-04T10:42:05.371Z,5.63
2022-11-04T10:44:36.348Z,5.73
2022-11-04T10:47:26.877Z,1.93
2022-11-04T10:50:27.073Z,5.87
2022-11-04T10:52:43.955Z,8.07
2022-11-04T10:55:38.387Z,7.73
2022-11-04T10:58:17.118Z,6.60
2022-11-04T11:00:43.971Z,2.57
2022-11-04T11:03:25.569Z,3.77
2022-11-04T11:05:53.512Z,4.97
2022-11-04T11:08:47.028Z,5.03
2022-11-04T11:11:15.260Z,4.20
2022-11-04T11:13:45.130Z,7.90
2022-11-04T11:16:18.774Z,5.83
2022-11-04T11:18:48.927Z,3.73
2022-11-04T11:21:21.375Z,9.20
2022-11-04T11:23:49.136Z,3.70
2022-11-04T11:26:36.190Z,5.30
2022-11-04T11:29:10.623Z,5.53
2022-11-04T11:31:39.211Z,8.43
2022-11-04T11:34:15.345Z,4.33
2022-11-04T11:36:44.699Z,2.30
2022-11-04T11:39:12.091Z,4.27
2022-11-04T11:42:03.201Z,5.40
2022-11-04T11:44:38.759Z,10.80
2022-11-04T11:47:07.880Z,2.50
2022-11-04T11:49:36.794Z,2.90
2022-11-04T11:52:32.489Z,2.63
2022-11-04T11:55:28.745Z,3.30
2022-11-04T12:01:25.479Z,6.47
2022-11-04T12:10:51.961Z,3.80
2022-11-04T12:13:27.844Z,4.13
2022-11-04T12:16:21.101Z,5.33
2022-11-04T12:19:18.906Z,3.80
2022-11-04T12:22:08.673Z,4.00
2022-11-04T12:24:58.599Z,2.60
2022-11-04T12:27:47.759Z,1.30
2022-11-04T12:30:22.309Z,6.80
2022-11-04T12:33:12.008Z,3.80
2022-11-04T12:36:09.115Z,2.00
2022-11-04T12:39:08.708Z,3.10
2022-11-04T12:42:14.782Z,3.00
2022-11-04T12:44:42.362Z,2.30
2022-11-04T12:47:22.727Z,5.87
2022-11-04T12:50:12.751Z,5.27
2022-11-04T12:53:03.505Z,5.33
2022-11-04T12:55:30.146Z,9.43
2022-11-04T12:58:24.386Z,6.30
2022-11-04T13:01:05.157Z,2.77
2022-11-04T13:03:58.959Z,4.40
2022-11-04T13:06:37.845Z,4.50
2022-11-04T13:09:18.270Z,3.10
2022-11-04T13:11:55.859Z,5.57
2022-11-04T13:14:29.939Z,2.30
2022-11-04T13:17:01.096Z,1.57
2022-11-04T13:19:54.202Z,2.17
2022-11-04T13:22:40.573Z,3.20
2022-11-04T13:25:23.956Z,5.33
2022-11-04T13:27:51.432Z,3.83
2022-11-04T13:30:33.530Z,4.73
2022-11-04T13:33:16.962Z,6.63
2022-11-04T13:36:02.250Z,7.43
2022-11-04T13:38:34.943Z,4.90
2022-11-04T13:41:26.351Z,7.40
2022-11-04T13:43:57.458Z,5.60
2022-11-04T13:46:31.852Z,4.10
2022-11-04T13:49:11.827Z,3.43
2022-11-04T13:51:47.490Z,1.90
2022-11-04T13:54:42.792Z,5.27
2022-11-04T13:57:12.317Z,3.83
2022-11-04T13:59:40.468Z,2.30
2022-11-04T14:02:19.660Z,7.40
2022-11-04T14:04:47.391Z,2.70
2022-11-04T14:07:17.872Z,10.07
2022-11-04T14:09:44.641Z,3.83
2022-11-04T14:12:11.498Z,2.93
2022-11-04T14:14:39.011Z,7.03
2022-11-04T14:17:34.457Z,4.67
2022-11-04T14:20:11.593Z,3.40
2022-11-04T14:22:44.344Z,3.73
2022-11-04T14:25:25.307Z,5.93
2022-11-04T14:27:57.995Z,7.63
2022-11-04T14:30:53.396Z,6.37
2022-11-04T14:33:38.145Z,15.10
2022-11-04T14:36:30.561Z,10.23
2022-11-04T14:39:12.635Z,3.93
2022-11-04T14:42:03.531Z,2.83
2022-11-04T14:44:41.602Z,2.40
2022-11-04T14:47:20.323Z,8.03
2022-11-04T14:49:50.905Z,5.13
2022-11-04T14:52:36.873Z,9.53
2022-11-04T14:55:29.516Z,3.13
2022-11-04T14:58:00.666Z,3.07
2022-11-04T15:00:29.042Z,2.50
2022-11-04T15:03:06.643Z,2.80
2022-11-04T15:05:36.493Z,1.80
2022-11-04T15:08:27.277Z,1.53
2022-11-04T15:12:03.165Z,4.20
2022-11-04T15:14:30.028Z,2.60
2022-11-04T15:16:58.845Z,6.83
2022-11-04T15:19:34.978Z,4.57
2022-11-04T15:22:06.163Z,4.50
2022-11-04T15:24:34.430Z,4.73
2022-11-04T15:27:13.459Z,6.33
2022-11-04T15:29:40.202Z,4.47
2022-11-04T15:32:07.849Z,2.67
2022-11-04T15:34:36.540Z,3.17
2022-11-04T15:37:05.477Z,2.53
2022-11-04T15:39:40.690Z,9.90
2022-11-04T15:42:34.283Z,4.53
2022-11-04T15:45:16.474Z,4.10
2022-11-04T15:47:43.211Z,5.03
2022-11-04T15:50:30.540Z,4.83
2022-11-04T15:52:57.414Z,6.90
2022-11-04T15:55:27.318Z,6.50
2022-11-04T15:57:56.002Z,5.23
2022-11-04T16:00:24.973Z,3.73
2022-11-04T16:02:53.187Z,3.73
2022-11-04T16:05:21.571Z,5.27
2022-11-04T16:07:53.461Z,9.90
2022-11-04T16:10:35.118Z,2.30
2022-11-04T16:13:17.222Z,3.70
2022-11-04T16:16:13.265Z,2.60
2022-11-04T16:18:50.231Z,1.93
2022-11-04T16:21:30.617Z,7.93
2022-11-04T16:24:02.953Z,7.07
2022-11-04T16:26:39.543Z,17.53
2022-11-04T16:29:16.155Z,16.80
2022-11-04T16:31:43.319Z,14.07
2022-11-04T16:34:12.704Z,18.17
2022-11-04T16:36:39.752Z,17.70
2022-11-04T16:39:10.664Z,22.97
2022-11-04T16:41:41.231Z,13.93
2022-11-04T16:44:21.267Z,16.13
2022-11-04T16:46:48.234Z,13.93
2022-11-04T16:49:16.647Z,10.20
2022-11-04T16:51:44.180Z,10.63
2022-11-04T16:54:11.085Z,10.37
2022-11-04T16:56:38.694Z,13.30
2022-11-04T16:59:05.418Z,12.63
2022-11-04T17:01:32.342Z,17.97
2022-11-04T17:03:59.235Z,22.27
2022-11-04T17:06:26.218Z,20.57
2022-11-04T17:08:53.307Z,15.10
2022-11-04T17:11:20.015Z,16.70
2022-11-04T17:13:46.788Z,16.97
2022-11-04T17:16:14.601Z,15.63
2022-11-04T17:18:41.686Z,7.03
2022-11-04T17:21:13.253Z,6.33
2022-11-04T17:23:39.963Z,3.93
2022-11-04T17:26:06.695Z,6.90
2022-11-04T17:28:33.528Z,4.03
2022-11-04T17:31:02.181Z,5.43
2022-11-04T17:33:29.070Z,3.80
2022-11-04T17:35:56.127Z,2.73
2022-11-04T17:38:22.831Z,5.30
2022-11-04T17:41:08.074Z,2.60
2022-11-04T17:43:53.301Z,5.80
2022-11-04T17:46:35.414Z,6.80
2022-11-04T17:49:06.083Z,5.23
2022-11-04T17:51:33.217Z,4.23
2022-11-04T17:54:00.031Z,7.20
2022-11-04T17:56:26.813Z,16.40
2022-11-04T17:58:53.554Z,35.40
2022-11-04T18:01:23.371Z,13.13
2022-11-04T18:03:52.529Z,9.97
2022-11-04T18:06:20.690Z,11.53
2022-11-04T18:08:48.295Z,23.20
2022-11-04T18:11:35.482Z,16.00
2022-11-04T18:14:02.195Z,13.73
2022-11-04T18:16:29.053Z,13.90
2022-11-04T18:18:58.245Z,12.40
2022-11-04T18:21:25.881Z,17.77
2022-11-04T18:23:52.659Z,13.27
2022-11-04T18:26:19.363Z,9.80
2022-11-04T18:28:46.101Z,15.07
2022-11-04T18:31:29.385Z,12.97
2022-11-04T18:33:59.087Z,16.33
2022-11-04T18:36:26.462Z,14.70
2022-11-04T18:38:53.400Z,15.10
2022-11-04T18:41:20.833Z,16.17
2022-11-04T18:43:47.538Z,15.87
2022-11-04T18:46:16.361Z,14.83
2022-11-04T18:48:43.130Z,15.70
2022-11-04T18:51:12.571Z,19.63
2022-11-04T18:53:39.513Z,22.23
2022-11-04T18:56:12.880Z,19.23
2022-11-04T18:58:39.946Z,19.20
2022-11-04T19:01:15.212Z,18.57
2022-11-04T19:03:42.071Z,14.40
2022-11-04T19:06:11.176Z,13.70
2022-11-04T19:08:43.759Z,10.37
2022-11-04T19:11:17.556Z,8.23
2022-11-04T19:13:44.798Z,8.63
2022-11-04T19:16:12.923Z,6.07
2022-11-04T19:18:40.306Z,8.80
2022-11-04T19:21:12.496Z,14.00
2022-11-04T19:23:39.471Z,15.67
2022-11-04T19:26:08.895Z,19.10
2022-11-04T19:28:48.434Z,19.97
2022-11-04T19:31:21.987Z,19.20
2022-11-04T19:33:50.203Z,19.40
2022-11-04T19:36:19.434Z,27.83
2022-11-04T19:38:46.742Z,15.03
2022-11-04T19:41:37.464Z,9.67
2022-11-04T19:44:08.492Z,12.67
2022-11-04T19:46:36.082Z,13.60
2022-11-04T19:49:02.845Z,13.23
2022-11-04T19:51:32.105Z,12.90
2022-11-04T19:53:59.627Z,12.30
2022-11-04T19:56:26.819Z,22.87
2022-11-04T19:58:54.267Z,15.40
2022-11-04T20:01:21.601Z,23.63
2022-11-04T20:03:48.610Z,24.13
2022-11-04T20:06:16.029Z,22.60
2022-11-04T20:08:45.857Z,23.70
2022-11-04T20:11:13.633Z,20.07
2022-11-04T20:13:47.235Z,17.70
2022-11-04T20:16:20.952Z,16.87
2022-11-04T20:18:54.197Z,15.90
2022-11-04T20:21:21.672Z,21.23
2022-11-04T20:23:48.367Z,20.60
2022-11-04T20:26:20.614Z,16.60
2022-11-04T20:28:47.917Z,17.00
2022-11-04T20:31:20.156Z,22.07
2022-11-04T20:33:48.661Z,20.03
2022-11-04T20:36:17.236Z,19.60
2022-11-04T20:38:44.704Z,17.93
2022-11-04T20:41:18.673Z,20.23
2022-11-04T20:43:47.582Z,23.10
2022-11-04T20:46:20.390Z,26.93
2022-11-04T20:48:47.742Z,20.60
2022-11-04T20:51:22.748Z,21.53
2022-11-04T20:53:55.795Z,24.50
2022-11-04T20:56:25.211Z,25.00
2022-11-04T20:58:58.615Z,32.33
2022-11-04T21:01:29.041Z,20.13
2022-11-04T21:04:21.421Z,22.27
2022-11-04T21:06:49.416Z,17.90
2022-11-04T21:09:18.561Z,14.60
2022-11-04T21:11:45.646Z,17.33
2022-11-04T21:14:15.130Z,28.83
2022-11-04T21:16:42.679Z,19.00
2022-11-04T21:19:11.837Z,15.43
2022-11-04T21:21:41.058Z,14.57
2022-11-04T21:24:07.859Z,14.37
2022-11-04T21:26:35.412Z,8.83
2022-11-04T21:29:05.204Z,9.73
2022-11-04T21:31:33.682Z,6.80
2022-11-04T21:34:00.835Z,8.33
2022-11-04T21:36:28.152Z,6.43
2022-11-04T21:38:54.946Z,7.90
2022-11-04T21:41:27.352Z,3.40
2022-11-04T21:43:59.373Z,6.80
2022-11-04T21:46:27.581Z,5.37
2022-11-04T21:48:55.651Z,2.50
2022-11-04T21:51:29.014Z,2.93
2022-11-04T21:53:57.295Z,9.17
2022-11-04T21:56:26.820Z,4.43
2022-11-04T21:58:54.568Z,7.73
2022-11-04T22:01:25.384Z,6.60
2022-11-04T22:04:00.776Z,4.70
2022-11-04T22:06:35.215Z,9.03
2022-11-04T22:09:05.322Z,5.80
2022-11-04T22:11:33.561Z,8.50
2022-11-04T22:14:02.420Z,10.80
2022-11-04T22:16:31.804Z,8.50
2022-11-04T22:19:01.199Z,11.03
2022-11-04T22:21:29.429Z,15.30
2022-11-04T22:23:56.899Z,13.37
2022-11-04T22:26:28.938Z,9.23
2022-11-04T22:28:56.864Z,11.27
2022-11-04T22:31:25.335Z,13.63
2022-11-04T22:33:52.537Z,14.00
2022-11-04T22:36:19.944Z,12.60
2022-11-04T22:38:46.933Z,15.23
2022-11-04T22:41:17.728Z,14.60
2022-11-04T22:43:44.503Z,13.87
2022-11-04T22:46:23.178Z,10.00
2022-11-04T22:48:49.905Z,10.70
2022-11-04T22:51:16.979Z,9.33
2022-11-04T22:53:44.214Z,10.33
2022-11-04T22:56:13.595Z,16.67
2022-11-04T22:58:40.904Z,9.70
2022-11-04T23:01:14.595Z,7.20
2022-11-04T23:03:41.807Z,9.60
2022-11-04T23:06:10.381Z,9.30
2022-11-04T23:08:38.836Z,9.00
2022-11-04T23:11:36.882Z,9.80
2022-11-04T23:14:22.602Z,8.60
2022-11-04T23:17:09.601Z,10.37
2022-11-04T23:19:37.136Z,6.47
2022-11-04T23:22:22.927Z,13.23
2022-11-04T23:25:09.869Z,7.30
2022-11-04T23:28:07.259Z,7.50
2022-11-04T23:30:37.377Z,8.33
2022-11-04T23:33:07.906Z,8.37
2022-11-04T23:36:05.343Z,8.30
2022-11-04T23:38:32.583Z,6.73
2022-11-04T23:41:28.480Z,11.63
2022-11-04T23:43:55.190Z,7.87
2022-11-04T23:46:43.420Z,6.20
2022-11-04T23:49:31.879Z,6.63
2022-11-04T23:52:17.475Z,6.50
2022-11-04T23:55:02.838Z,4.50
2022-11-04T23:57:48.243Z,8.70
